Time;durP1;ratioP1;P1;durP2;ratioP2;P2;SDS_P1;SDS_P2;PMS_P1;PMS_P2;Temp;Humidity;BMP_temperature;BMP_pressure;BME280_temperature;BME280_humidity;BME280_pressure;Samples;Min_cycle;Max_cycle;Signal;HPM_P1;HPM_P2
2022/05/09 00:01:58;;;;;;;10.00;9.00;;;14.90;99.90;;;;;;5094138;28;20965;-73
2022/05/09 00:04:25;;;;;;;9.70;8.43;;;14.90;99.90;;;;;;5094333;28;21156;-72
2022/05/09 00:06:51;;;;;;;9.60;8.80;;;14.90;99.90;;;;;;5093673;28;21003;-72
2022/05/09 00:09:18;;;;;;;10.80;9.70;;;14.80;99.90;;;;;;5093228;28;20625;-72
2022/05/09 00:11:45;;;;;;;11.37;10.20;;;14.80;99.90;;;;;;5094098;28;20614;-72
2022/05/09 00:14:13;;;;;;;11.50;10.07;;;14.70;99.90;;;;;;5094114;28;20661;-73
2022/05/09 00:16:40;;;;;;;12.03;9.97;;;14.70;99.90;;;;;;5094440;28;20616;-73
2022/05/09 00:19:09;;;;;;;9.30;8.60;;;14.70;99.90;;;;;;5093463;28;20594;-72
2022/05/09 00:21:38;;;;;;;11.27;10.17;;;14.70;99.90;;;;;;5093832;28;21012;-72
2022/05/09 00:24:08;;;;;;;11.70;9.83;;;14.70;99.90;;;;;;5094033;28;20614;-72
2022/05/09 00:26:34;;;;;;;17.33;10.03;;;14.60;99.90;;;;;;5094182;28;20609;-72
2022/05/09 00:29:03;;;;;;;14.53;10.43;;;14.70;99.90;;;;;;5094219;28;20629;-72
2022/05/09 00:31:30;;;;;;;13.63;9.80;;;14.60;99.90;;;;;;5093906;28;20650;-72
2022/05/09 00:33:57;;;;;;;24.80;11.80;;;14.60;99.90;;;;;;5093948;28;21007;-72
2022/05/09 00:36:23;;;;;;;9.80;8.97;;;14.50;99.90;;;;;;5075590;28;20601;-74
2022/05/09 00:38:50;;;;;;;11.07;10.00;;;14.50;99.90;;;;;;5093238;28;20621;-74
2022/05/09 00:41:31;;;;;;;12.00;10.57;;;14.50;99.90;;;;;;5093677;28;20602;-74
2022/05/09 00:44:00;;;;;;;15.00;11.30;;;14.50;99.90;;;;;;5092986;28;20632;-74
2022/05/09 00:46:28;;;;;;;12.27;10.33;;;14.50;99.90;;;;;;5092778;28;20617;-74
2022/05/09 00:49:02;;;;;;;12.60;10.93;;;14.40;99.90;;;;;;5093466;28;20651;-74
2022/05/09 00:51:29;;;;;;;12.40;10.47;;;14.40;99.90;;;;;;5093785;28;20581;-74
2022/05/09 00:53:58;;;;;;;15.43;10.47;;;14.40;99.90;;;;;;5093384;28;21000;-74
2022/05/09 00:56:49;;;;;;;11.63;10.30;;;14.30;99.90;;;;;;5093222;28;20613;-72
2022/05/09 00:59:19;;;;;;;11.33;10.20;;;14.30;99.90;;;;;;5093990;28;20629;-72
2022/05/09 01:01:47;;;;;;;13.53;11.77;;;14.30;99.90;;;;;;5075452;28;20593;-72
2022/05/09 01:04:18;;;;;;;11.93;10.73;;;14.30;99.90;;;;;;5092735;28;20614;-72
2022/05/09 01:06:44;;;;;;;12.20;10.63;;;14.30;99.90;;;;;;5092264;28;20664;-72
2022/05/09 01:09:11;;;;;;;12.97;10.50;;;14.20;99.90;;;;;;5093274;28;20662;-72
2022/05/09 01:11:40;;;;;;;13.23;11.20;;;14.20;99.90;;;;;;5093187;28;21198;-72
2022/05/09 01:14:13;;;;;;;12.43;11.10;;;14.10;99.90;;;;;;5093458;28;20660;-72
2022/05/09 01:16:40;;;;;;;15.37;11.00;;;14.10;99.90;;;;;;5092995;28;20625;-72
2022/05/09 01:19:24;;;;;;;17.93;11.10;;;14.10;99.90;;;;;;5092773;28;20625;-72
2022/05/09 01:21:51;;;;;;;11.07;10.00;;;14.00;99.90;;;;;;5093400;28;20574;-73
2022/05/09 01:24:22;;;;;;;11.33;10.23;;;14.00;99.90;;;;;;5093157;28;20596;-73
2022/05/09 01:26:49;;;;;;;12.37;9.40;;;14.00;99.90;;;;;;5093225;28;21160;-73
2022/05/09 01:29:44;;;;;;;10.30;9.40;;;14.00;99.90;;;;;;5093176;28;20609;-73
2022/05/09 01:32:13;;;;;;;10.07;8.97;;;14.00;99.90;;;;;;5097730;28;20584;-73
2022/05/09 01:34:45;;;;;;;11.23;10.00;;;13.90;99.90;;;;;;5097026;28;20695;-73
2022/05/09 01:37:12;;;;;;;17.83;9.33;;;13.80;99.90;;;;;;5096850;28;20984;-73
2022/05/09 01:39:39;;;;;;;11.37;9.90;;;13.80;99.90;;;;;;5097697;28;20674;-73
2022/05/09 01:42:08;;;;;;;14.23;9.23;;;13.80;99.90;;;;;;5096859;28;20616;-73
2022/05/09 01:44:35;;;;;;;10.90;9.13;;;13.70;99.90;;;;;;5097617;28;20628;-73
2022/05/09 01:49:47;;;;;;;11.97;9.60;;;13.60;99.90;;;;;;5097397;28;20593;-73
2022/05/09 01:52:14;;;;;;;9.70;8.80;;;13.60;99.90;;;;;;5078649;28;20591;-72
2022/05/09 01:54:43;;;;;;;12.83;9.13;;;13.60;99.90;;;;;;5097002;28;20648;-73
2022/05/09 01:57:11;;;;;;;10.83;9.03;;;13.60;99.90;;;;;;5097004;28;20588;-73
2022/05/09 01:59:39;;;;;;;10.00;9.03;;;13.50;99.90;;;;;;5097107;28;20602;-73
2022/05/09 02:02:14;;;;;;;9.77;8.80;;;13.50;99.90;;;;;;5078365;28;20618;-73
2022/05/09 02:04:41;;;;;;;10.00;8.70;;;13.40;99.90;;;;;;5096889;28;20583;-73
2022/05/09 02:07:10;;;;;;;13.93;9.97;;;13.40;99.90;;;;;;5096077;28;20672;-73
2022/05/09 02:09:45;;;;;;;9.83;8.87;;;13.40;99.90;;;;;;5096934;28;20621;-73
2022/05/09 02:12:13;;;;;;;10.77;8.77;;;13.30;99.90;;;;;;5097157;28;20637;-73
2022/05/09 02:14:40;;;;;;;13.60;8.90;;;13.30;99.90;;;;;;5096621;28;21203;-73
2022/05/09 02:17:08;;;;;;;8.30;7.60;;;13.30;99.90;;;;;;5096995;28;20642;-73
2022/05/09 02:19:35;;;;;;;8.90;7.78;;;13.30;99.90;;;;;;5096708;28;20617;-73
2022/05/09 02:22:03;;;;;;;8.40;7.65;;;13.30;99.90;;;;;;5096711;28;20685;-73
2022/05/09 02:24:30;;;;;;;11.50;8.05;;;13.20;99.90;;;;;;5078959;28;20211;-73
2022/05/09 02:26:57;;;;;;;9.00;8.13;;;13.20;99.90;;;;;;5096587;28;20203;-73
2022/05/09 02:29:25;;;;;;;8.90;7.70;;;13.20;99.90;;;;;;5096569;28;20211;-73
2022/05/09 02:31:52;;;;;;;11.20;8.13;;;13.10;99.90;;;;;;5078610;28;20199;-73
2022/05/09 02:34:19;;;;;;;10.27;8.70;;;13.10;99.90;;;;;;5096234;28;20226;-73
2022/05/09 02:36:45;;;;;;;8.95;8.18;;;13.10;99.90;;;;;;5096319;28;20602;-73
2022/05/09 02:39:12;;;;;;;8.50;7.80;;;13.10;99.90;;;;;;5096208;28;20596;-73
2022/05/09 02:41:38;;;;;;;9.15;8.30;;;13.10;99.90;;;;;;5095740;28;20196;-73
2022/05/09 02:44:05;;;;;;;9.13;8.30;;;13.00;99.90;;;;;;5077832;28;20619;-73
2022/05/09 02:46:31;;;;;;;9.63;8.40;;;13.10;99.90;;;;;;5096434;28;20248;-73
2022/05/09 02:48:59;;;;;;;9.55;8.15;;;13.00;99.90;;;;;;5096584;28;20199;-73
2022/05/09 02:51:29;;;;;;;8.17;7.47;;;13.00;99.90;;;;;;5095961;28;20195;-73
2022/05/09 02:53:56;;;;;;;9.60;8.50;;;12.90;99.90;;;;;;5095019;28;20613;-73
2022/05/09 02:56:23;;;;;;;12.32;8.55;;;12.90;99.90;;;;;;5095696;28;20215;-73
2022/05/09 02:58:49;;;;;;;11.27;8.45;;;12.90;99.90;;;;;;5077985;28;20195;-73
2022/05/09 03:01:16;;;;;;;9.75;8.75;;;12.80;99.90;;;;;;5096031;28;20214;-73
2022/05/09 03:06:27;;;;;;;9.90;9.00;;;12.80;99.90;;;;;;5095763;28;20239;-73
2022/05/09 03:08:54;;;;;;;9.63;8.75;;;12.80;99.90;;;;;;5096049;28;20211;-73
2022/05/09 03:11:20;;;;;;;10.27;8.32;;;12.80;99.90;;;;;;5096238;28;20199;-73
2022/05/09 03:13:48;;;;;;;8.60;7.78;;;12.80;99.90;;;;;;5095692;28;20230;-73
2022/05/09 03:16:14;;;;;;;12.05;8.60;;;12.80;99.90;;;;;;5094859;28;20230;-73
2022/05/09 03:18:41;;;;;;;12.98;9.35;;;12.70;99.90;;;;;;5095261;28;20655;-73
2022/05/09 03:21:07;;;;;;;10.45;8.00;;;12.70;99.90;;;;;;5095741;28;20203;-73
2022/05/09 03:23:34;;;;;;;9.75;8.80;;;12.70;99.90;;;;;;5077511;28;20201;-73
2022/05/09 03:26:00;;;;;;;8.80;8.00;;;12.70;99.90;;;;;;5095345;28;20203;-73
2022/05/09 03:28:27;;;;;;;11.07;8.80;;;12.70;99.90;;;;;;5095217;28;20625;-73
2022/05/09 03:30:56;;;;;;;9.67;8.77;;;12.70;99.90;;;;;;5095615;28;20613;-72
2022/05/09 03:33:26;;;;;;;14.20;8.73;;;12.70;99.90;;;;;;5095379;28;21036;-72
2022/05/09 03:35:54;;;;;;;8.77;7.90;;;12.60;99.90;;;;;;5095510;28;20208;-72
2022/05/09 03:38:21;;;;;;;9.27;8.38;;;12.60;99.90;;;;;;5095230;28;20195;-73
2022/05/09 03:40:47;;;;;;;11.18;8.95;;;12.60;99.90;;;;;;5094782;28;20199;-73
2022/05/09 03:43:14;;;;;;;9.75;8.82;;;12.60;99.90;;;;;;5076472;28;20221;-73
2022/05/09 03:45:43;;;;;;;12.27;9.07;;;12.50;99.90;;;;;;5094437;28;20233;-73
2022/05/09 03:48:10;;;;;;;9.98;9.00;;;12.50;99.90;;;;;;5094141;28;20199;-73
2022/05/09 03:50:37;;;;;;;11.07;9.13;;;12.40;99.90;;;;;;5094923;28;20572;-73
2022/05/09 03:53:04;;;;;;;10.20;8.10;;;12.50;99.90;;;;;;5093808;28;20191;-73
2022/05/09 03:55:33;;;;;;;10.32;9.20;;;12.40;99.90;;;;;;5094658;28;20219;-73
2022/05/09 03:57:59;;;;;;;12.43;9.15;;;12.40;99.90;;;;;;5094749;28;20203;-73
2022/05/09 04:00:28;;;;;;;11.65;9.32;;;12.40;99.90;;;;;;5094258;28;20200;-73
2022/05/09 04:02:55;;;;;;;9.10;8.20;;;12.30;99.90;;;;;;5094411;28;20552;-73
2022/05/09 04:05:21;;;;;;;11.23;9.10;;;12.40;99.90;;;;;;5094135;28;20223;-74
2022/05/09 04:07:50;;;;;;;10.50;9.50;;;12.40;99.90;;;;;;5094187;28;20227;-73
2022/05/09 04:10:20;;;;;;;9.57;8.65;;;12.40;99.90;;;;;;5094242;28;20203;-73
2022/05/09 04:12:47;;;;;;;10.70;8.90;;;12.40;99.90;;;;;;5093840;28;20579;-73
2022/05/09 04:17:59;;;;;;;10.43;9.27;;;12.30;99.90;;;;;;5093806;28;20623;-73
2022/05/09 04:20:29;;;;;;;10.00;8.93;;;12.30;99.90;;;;;;5094122;28;20992;-73
2022/05/09 04:22:57;;;;;;;10.30;9.02;;;12.40;99.90;;;;;;5093474;28;20615;-73
2022/05/09 04:25:23;;;;;;;13.05;9.88;;;12.40;99.90;;;;;;5094064;28;20206;-73
2022/05/09 04:27:50;;;;;;;12.93;9.50;;;12.40;99.90;;;;;;5075334;28;20211;-73
2022/05/09 04:30:16;;;;;;;10.60;9.40;;;12.40;99.90;;;;;;5075394;28;20621;-73
2022/05/09 04:32:43;;;;;;;10.85;9.40;;;12.40;99.90;;;;;;5094197;28;20207;-73
2022/05/09 04:35:17;;;;;;;14.98;10.45;;;12.40;99.90;;;;;;5093708;28;20219;-74
2022/05/09 04:37:47;;;;;;;12.50;9.73;;;12.40;99.90;;;;;;5076858;28;20179;-73
2022/05/09 04:40:16;;;;;;;12.27;9.20;;;12.40;99.90;;;;;;5093298;28;20203;-73
2022/05/09 04:42:43;;;;;;;13.75;10.15;;;12.40;99.90;;;;;;5093063;28;20214;-73
2022/05/09 04:45:12;;;;;;;11.13;9.98;;;12.40;99.90;;;;;;5093211;28;20559;-73
2022/05/09 04:47:39;;;;;;;10.82;9.68;;;12.40;99.90;;;;;;5093774;28;20256;-73
2022/05/09 04:50:07;;;;;;;18.13;10.52;;;12.50;99.90;;;;;;5093566;28;20204;-73
2022/05/09 04:52:34;;;;;;;11.48;8.50;;;12.60;99.90;;;;;;5093645;28;20210;-73
2022/05/09 04:55:01;;;;;;;10.35;9.35;;;12.60;99.90;;;;;;5093801;28;20218;-73
2022/05/09 04:57:27;;;;;;;11.55;8.95;;;12.70;99.90;;;;;;5093680;28;20574;-74
2022/05/09 04:59:53;;;;;;;11.13;10.00;;;12.70;99.90;;;;;;5093825;28;20735;-73
2022/05/09 05:02:20;;;;;;;12.05;10.63;;;12.80;99.90;;;;;;5093606;28;21216;-73
2022/05/09 05:04:46;;;;;;;10.50;9.33;;;12.80;99.90;;;;;;5075367;28;20207;-74
2022/05/09 05:07:13;;;;;;;13.43;9.50;;;12.90;99.90;;;;;;5093226;28;20722;-73
2022/05/09 05:09:39;;;;;;;13.30;9.88;;;12.90;99.90;;;;;;5093198;28;20631;-73
2022/05/09 05:12:06;;;;;;;15.15;10.98;;;13.00;99.90;;;;;;5092937;28;20203;-73
2022/05/09 05:14:32;;;;;;;12.97;9.67;;;13.10;99.90;;;;;;5093179;28;20650;-73
2022/05/09 05:16:59;;;;;;;12.52;9.60;;;13.20;99.90;;;;;;5093023;28;20613;-73
2022/05/09 05:19:31;;;;;;;14.10;9.70;;;13.20;99.90;;;;;;5093073;28;20677;-73
2022/05/09 05:21:59;;;;;;;12.57;9.73;;;13.30;99.90;;;;;;5093140;28;20584;-73
2022/05/09 05:24:28;;;;;;;11.43;9.30;;;13.30;99.90;;;;;;5093011;28;20617;-73
2022/05/09 05:26:56;;;;;;;20.17;10.80;;;13.40;99.90;;;;;;5093298;28;20614;-73
2022/05/09 05:29:23;;;;;;;12.80;9.90;;;13.40;99.90;;;;;;5074403;28;20981;-73
2022/05/09 05:31:50;;;;;;;11.77;10.60;;;13.60;99.90;;;;;;5074696;28;20625;-73
2022/05/09 05:34:17;;;;;;;11.33;10.23;;;13.60;99.90;;;;;;5075051;28;20648;-73
2022/05/09 05:36:44;;;;;;;14.33;10.70;;;13.70;99.90;;;;;;5093194;28;20675;-73
2022/05/09 05:39:15;;;;;;;10.87;9.80;;;13.80;99.90;;;;;;5092418;28;20618;-73
2022/05/09 05:41:45;;;;;;;14.00;12.63;;;13.90;99.90;;;;;;5075491;28;21038;-73
2022/05/09 05:44:12;;;;;;;10.50;9.50;;;13.90;99.90;;;;;;5093352;28;20602;-73
2022/05/09 05:46:42;;;;;;;17.17;9.40;;;14.00;99.90;;;;;;5092429;28;20745;-74
2022/05/09 05:49:09;;;;;;;12.50;10.27;;;14.10;99.90;;;;;;5092257;28;20209;-72
2022/05/09 05:51:36;;;;;;;10.67;9.67;;;14.20;99.90;;;;;;5092714;28;20584;-73
2022/05/09 05:54:04;;;;;;;10.63;8.93;;;14.30;99.90;;;;;;5092391;28;20629;-73
2022/05/09 05:56:31;;;;;;;16.20;10.70;;;14.40;99.90;;;;;;5092000;28;20689;-73
2022/05/09 05:58:58;;;;;;;12.63;9.90;;;14.60;99.90;;;;;;5092541;28;20605;-73
2022/05/09 06:01:24;;;;;;;10.37;9.37;;;14.50;99.90;;;;;;5092439;28;21156;-73
2022/05/09 06:03:51;;;;;;;10.93;9.43;;;14.50;99.90;;;;;;5092148;28;20610;-73
2022/05/09 06:06:17;;;;;;;11.83;8.97;;;14.50;99.90;;;;;;5091855;28;20790;-73
2022/05/09 06:08:45;;;;;;;9.90;9.00;;;14.70;99.90;;;;;;5092132;28;21160;-73
2022/05/09 06:11:13;;;;;;;10.37;9.30;;;14.80;99.90;;;;;;5091860;28;20614;-73
2022/05/09 06:13:40;;;;;;;12.83;9.90;;;14.90;99.90;;;;;;5091932;28;20694;-72
2022/05/09 06:16:07;;;;;;;13.23;9.37;;;15.00;99.90;;;;;;5092969;28;20661;-72
2022/05/09 06:18:34;;;;;;;13.40;9.73;;;15.20;99.90;;;;;;5095877;28;20613;-73
2022/05/09 06:21:00;;;;;;;16.20;9.37;;;15.20;99.90;;;;;;5095480;28;20621;-73
2022/05/09 06:23:27;;;;;;;12.27;10.17;;;15.40;99.90;;;;;;5095731;28;21186;-73
2022/05/09 06:25:54;;;;;;;12.17;10.03;;;15.50;99.90;;;;;;5095351;28;20705;-72
2022/05/09 06:28:22;;;;;;;12.40;9.60;;;15.70;99.90;;;;;;5077757;28;20620;-72
2022/05/09 06:30:49;;;;;;;10.37;9.10;;;15.70;99.90;;;;;;5095833;28;20621;-72
2022/05/09 06:33:23;;;;;;;11.10;10.00;;;15.80;99.90;;;;;;5095464;28;20623;-72
2022/05/09 06:35:51;;;;;;;8.80;7.90;;;15.80;99.90;;;;;;5095611;28;20656;-73
2022/05/09 06:38:19;;;;;;;9.90;8.87;;;16.00;99.90;;;;;;5095322;28;20628;-73
2022/05/09 06:40:46;;;;;;;12.70;8.97;;;16.10;99.90;;;;;;5095852;28;20591;-73
2022/05/09 06:43:13;;;;;;;12.20;10.07;;;16.10;99.90;;;;;;5095349;28;20613;-72
2022/05/09 06:45:40;;;;;;;14.10;8.60;;;16.20;99.90;;;;;;5095406;28;21160;-72
2022/05/09 06:48:08;;;;;;;11.93;9.47;;;16.20;99.90;;;;;;5095576;28;20612;-73
2022/05/09 06:50:35;;;;;;;9.67;8.40;;;16.20;99.90;;;;;;5094598;28;20975;-73
2022/05/09 06:53:03;;;;;;;9.37;8.33;;;16.40;99.90;;;;;;5095358;28;20609;-72
2022/05/09 06:55:30;;;;;;;12.57;9.30;;;16.40;99.90;;;;;;5095122;28;21009;-72
2022/05/09 06:57:56;;;;;;;12.13;9.53;;;16.40;99.90;;;;;;5095662;28;20596;-72
2022/05/09 07:00:24;;;;;;;9.47;8.53;;;16.40;99.90;;;;;;5095544;28;20643;-72
2022/05/09 07:02:51;;;;;;;12.93;11.80;;;16.40;99.90;;;;;;5095287;28;20617;-72
2022/05/09 07:05:20;;;;;;;10.90;8.30;;;16.60;99.90;;;;;;5095829;28;20649;-72
2022/05/09 07:07:48;;;;;;;9.20;8.17;;;16.70;99.90;;;;;;5094837;28;20653;-72
2022/05/09 07:10:17;;;;;;;9.47;8.23;;;16.80;99.90;;;;;;5095437;28;20684;-72
2022/05/09 07:12:47;;;;;;;9.87;8.67;;;16.80;99.90;;;;;;5076806;28;20629;-72
2022/05/09 07:15:18;;;;;;;9.63;8.00;;;16.80;99.90;;;;;;5095248;28;20610;-72
2022/05/09 07:17:45;;;;;;;9.60;8.80;;;16.80;99.90;;;;;;5095105;28;20574;-73
2022/05/09 07:20:12;;;;;;;8.87;7.97;;;16.90;99.90;;;;;;5095064;28;20613;-73
2022/05/09 07:22:39;;;;;;;12.27;9.00;;;17.00;99.90;;;;;;5094938;28;20700;-73
2022/05/09 07:25:06;;;;;;;10.60;8.67;;;17.10;99.90;;;;;;5094688;28;20614;-72
2022/05/09 07:27:32;;;;;;;10.10;7.87;;;17.20;99.90;;;;;;5094604;28;20613;-72
2022/05/09 07:29:59;;;;;;;13.80;9.30;;;17.40;99.90;;;;;;5094588;28;20667;-72
2022/05/09 07:32:25;;;;;;;10.80;7.53;;;17.50;99.90;;;;;;5077150;28;20606;-73
2022/05/09 07:34:52;;;;;;;9.67;7.70;;;17.60;99.90;;;;;;5094768;28;20613;-73
2022/05/09 07:37:18;;;;;;;9.87;8.90;;;17.70;99.90;;;;;;5094525;28;20660;-74
2022/05/09 07:39:45;;;;;;;8.63;7.77;;;17.80;99.90;;;;;;5094723;28;20608;-74
2022/05/09 07:42:11;;;;;;;8.13;7.30;;;17.80;99.90;;;;;;5094611;28;20675;-73
2022/05/09 07:44:38;;;;;;;9.90;8.70;;;17.80;99.90;;;;;;5093895;28;20610;-73
2022/05/09 07:47:05;;;;;;;9.60;8.57;;;17.70;99.90;;;;;;5094152;28;20620;-73
2022/05/09 07:49:31;;;;;;;10.00;9.00;;;17.80;99.90;;;;;;5093908;28;20628;-73
2022/05/09 07:51:58;;;;;;;8.33;7.50;;;17.90;99.90;;;;;;5076143;28;21043;-73
2022/05/09 07:54:24;;;;;;;10.57;8.00;;;18.10;99.90;;;;;;5093916;28;20628;-72
2022/05/09 07:56:51;;;;;;;8.67;7.97;;;18.30;99.90;;;;;;5094097;28;21012;-72
2022/05/09 07:59:19;;;;;;;8.87;8.07;;;18.50;99.90;;;;;;5094602;28;20954;-72
2022/05/09 08:01:45;;;;;;;13.43;9.00;;;18.70;99.90;;;;;;5094441;28;20621;-72
2022/05/09 08:04:12;;;;;;;9.30;8.27;;;18.60;99.90;;;;;;5094496;28;20613;-72
2022/05/09 08:06:39;;;;;;;9.60;8.23;;;18.80;99.90;;;;;;5093748;28;20648;-72
2022/05/09 08:09:06;;;;;;;9.53;8.60;;;18.60;99.90;;;;;;5094305;28;20601;-72
2022/05/09 08:11:32;;;;;;;9.30;8.40;;;18.70;99.90;;;;;;5093561;28;20616;-73
2022/05/09 08:13:59;;;;;;;9.33;8.47;;;18.70;99.90;;;;;;5093734;28;21202;-73
2022/05/09 08:16:29;;;;;;;8.90;8.00;;;19.00;99.90;;;;;;5075423;28;20762;-73
2022/05/09 08:18:55;;;;;;;9.23;7.23;;;19.10;99.90;;;;;;5093882;28;20756;-73
2022/05/09 08:21:21;;;;;;;13.83;7.90;;;19.00;99.90;;;;;;5093423;28;20617;-73
2022/05/09 08:23:50;;;;;;;15.83;8.03;;;19.10;99.90;;;;;;5094051;28;20605;-73
2022/05/09 08:26:19;;;;;;;9.40;8.40;;;19.20;99.90;;;;;;5093219;28;20690;-72
2022/05/09 08:28:45;;;;;;;9.00;8.13;;;19.20;99.90;;;;;;5093809;28;20677;-73
2022/05/09 08:31:16;;;;;;;8.47;7.57;;;19.00;99.90;;;;;;5093932;28;20624;-73
2022/05/09 08:33:43;;;;;;;11.20;7.77;;;19.20;99.90;;;;;;5076243;28;20613;-73
2022/05/09 08:36:09;;;;;;;9.23;8.10;;;19.50;99.90;;;;;;5093591;28;20652;-73
2022/05/09 08:38:36;;;;;;;8.23;7.60;;;19.70;99.90;;;;;;5075342;28;20598;-73
2022/05/09 08:41:07;;;;;;;9.23;8.23;;;19.50;99.90;;;;;;5092966;28;20620;-73
2022/05/09 08:44:08;;;;;;;8.50;7.63;;;19.50;99.90;;;;;;5093239;28;20609;-72
2022/05/09 08:47:13;;;;;;;9.30;7.60;;;19.90;99.90;;;;;;5093540;28;20605;-73
2022/05/09 08:50:07;;;;;;;8.97;7.17;;;19.80;99.90;;;;;;5092634;28;20627;-73
2022/05/09 08:52:39;;;;;;;10.97;7.37;;;20.20;99.90;;;;;;5092433;28;20622;-72
2022/05/09 08:55:06;;;;;;;10.70;7.50;;;20.10;99.90;;;;;;5093339;28;20624;-73
2022/05/09 08:58:03;;;;;;;8.40;7.23;;;20.20;99.90;;;;;;5093098;28;20668;-72
2022/05/09 09:00:31;;;;;;;10.80;7.67;;;20.20;99.90;;;;;;5091448;28;20628;-72
2022/05/09 09:03:31;;;;;;;22.33;8.03;;;20.40;99.90;;;;;;5093344;28;21168;-72
2022/05/09 09:06:18;;;;;;;9.03;7.73;;;20.60;99.90;;;;;;5092989;28;20657;-73
2022/05/09 09:09:27;;;;;;;8.23;7.43;;;20.60;99.90;;;;;;5074936;28;20616;-73
2022/05/09 09:11:58;;;;;;;14.03;8.20;;;20.90;99.90;;;;;;5093021;28;20577;-73
2022/05/09 09:14:46;;;;;;;7.20;6.50;;;20.70;99.90;;;;;;5093256;28;20593;-73
2022/05/09 09:17:47;;;;;;;10.17;7.00;;;20.70;99.90;;;;;;5092898;28;21260;-73
2022/05/09 09:20:19;;;;;;;14.13;7.40;;;20.80;99.90;;;;;;5092822;28;21179;-73
2022/05/09 09:23:14;;;;;;;23.43;8.40;;;21.00;99.90;;;;;;5092647;28;20606;-73
2022/05/09 09:25:55;;;;;;;7.90;7.20;;;21.00;99.90;;;;;;5092722;28;21273;-74
2022/05/09 09:28:49;;;;;;;6.97;6.40;;;20.90;99.90;;;;;;5092762;28;20585;-71
2022/05/09 09:31:23;;;;;;;8.53;7.40;;;21.10;99.90;;;;;;5092511;28;20605;-74
2022/05/09 09:34:19;;;;;;;6.70;6.30;;;21.20;99.90;;;;;;5092909;28;21196;-74
2022/05/09 09:36:56;;;;;;;11.70;6.87;;;21.40;99.90;;;;;;5065717;28;21227;-73
2022/05/09 09:39:26;;;;;;;7.87;7.10;;;21.60;99.90;;;;;;5093195;28;20578;-74
2022/05/09 09:41:55;;;;;;;8.33;7.27;;;21.80;99.90;;;;;;5092965;28;20589;-73
2022/05/09 09:44:24;;;;;;;7.77;7.07;;;22.00;99.90;;;;;;5074990;28;20617;-72
2022/05/09 09:47:02;;;;;;;8.40;7.50;;;21.90;99.90;;;;;;5074642;28;20620;-73
2022/05/09 09:49:30;;;;;;;13.70;7.87;;;22.10;99.90;;;;;;5092370;28;20632;-73
2022/05/09 09:51:57;;;;;;;10.80;7.83;;;22.00;99.90;;;;;;5094885;28;20632;-73
2022/05/09 09:54:31;;;;;;;7.23;6.63;;;22.00;99.90;;;;;;5096330;28;21190;-73
2022/05/09 09:57:17;;;;;;;12.53;8.07;;;22.20;99.90;;;;;;5096711;28;20614;-73
2022/05/09 09:59:44;;;;;;;8.83;8.00;;;22.30;99.90;;;;;;5078276;28;20970;-72
2022/05/09 10:02:22;;;;;;;11.60;8.90;;;22.50;99.90;;;;;;5095997;28;20617;-74
2022/05/09 10:04:48;;;;;;;8.57;7.77;;;22.50;99.90;;;;;;5096186;28;21112;-73
2022/05/09 10:07:27;;;;;;;8.63;7.73;;;22.30;99.90;;;;;;5096094;28;20641;-73
2022/05/09 10:10:13;;;;;;;7.80;7.10;;;22.30;99.90;;;;;;5078496;28;20574;-73
2022/05/09 10:12:44;;;;;;;9.10;8.20;;;22.70;99.90;;;;;;5095967;28;20613;-73
2022/05/09 10:15:39;;;;;;;9.00;7.33;;;22.90;99.90;;;;;;5078050;28;20621;-73
2022/05/09 10:18:24;;;;;;;9.30;7.63;;;23.00;99.90;;;;;;5093264;28;20685;-73
2022/05/09 10:20:51;;;;;;;7.80;7.10;;;23.20;99.90;;;;;;5096194;28;20569;-74
2022/05/09 10:26:25;;;;;;;8.00;7.13;;;22.90;99.90;;;;;;5095940;28;20573;-74
2022/05/09 10:28:56;;;;;;;7.73;6.97;;;22.80;99.90;;;;;;5095739;28;20577;-74
2022/05/09 10:31:42;;;;;;;6.17;5.57;;;22.90;99.90;;;;;;5096008;28;20625;-74
2022/05/09 10:34:15;;;;;;;6.63;5.93;;;22.90;99.90;;;;;;5095679;28;20625;-74
2022/05/09 10:36:44;;;;;;;7.43;6.00;;;22.90;99.90;;;;;;5096115;28;20819;-74
2022/05/09 10:39:18;;;;;;;5.80;5.40;;;23.00;99.90;;;;;;5077527;28;20631;-75
2022/05/09 10:41:55;;;;;;;6.87;6.30;;;22.90;99.90;;;;;;5095708;28;20574;-74
2022/05/09 10:44:28;;;;;;;5.97;5.47;;;23.30;99.90;;;;;;5095306;28;20617;-74
2022/05/09 10:47:09;;;;;;;6.00;5.07;;;22.90;99.90;;;;;;5094860;28;20617;-74
2022/05/09 10:49:47;;;;;;;7.03;5.97;;;22.90;99.90;;;;;;5095931;28;20574;-74
2022/05/09 10:52:41;;;;;;;7.20;6.57;;;23.60;99.90;;;;;;5095325;28;20617;-73
2022/05/09 10:55:27;;;;;;;6.70;6.13;;;23.60;99.90;;;;;;5095655;28;20569;-72
2022/05/09 10:58:17;;;;;;;6.70;6.10;;;23.60;99.90;;;;;;5095309;28;20661;-73
2022/05/09 11:00:50;;;;;;;7.10;6.40;;;23.50;99.90;;;;;;5076867;28;20625;-74
2022/05/09 11:03:26;;;;;;;6.83;6.20;;;23.60;99.90;;;;;;5095591;28;21212;-75
2022/05/09 11:05:53;;;;;;;6.87;6.27;;;23.70;99.90;;;;;;5095101;28;20661;-73
2022/05/09 11:08:29;;;;;;;7.47;6.87;;;23.90;99.90;;;;;;5094953;28;20620;-73
2022/05/09 11:11:15;;;;;;;6.83;6.27;;;24.40;99.90;;;;;;5095231;28;20617;-73
2022/05/09 11:13:52;;;;;;;8.63;5.10;;;24.30;99.90;;;;;;5095303;28;20593;-72
2022/05/09 11:16:22;;;;;;;6.37;5.97;;;24.40;99.90;;;;;;5094697;28;20625;-73
2022/05/09 11:19:17;;;;;;;9.23;6.73;;;24.20;99.90;;;;;;5094109;28;20682;-73
2022/05/09 11:22:22;;;;;;;7.07;6.47;;;24.80;99.90;;;;;;5094656;28;20995;-73
2022/05/09 11:25:21;;;;;;;7.00;6.33;;;25.50;99.90;;;;;;5012708;28;20636;-74
2022/05/09 11:28:26;;;;;;;5.87;5.33;;;25.70;99.90;;;;;;5076463;28;20629;-73
2022/05/09 11:31:21;;;;;;;6.37;5.90;;;25.90;99.90;;;;;;5081372;28;20633;-74
2022/05/09 11:33:48;;;;;;;6.57;5.93;;;25.00;99.90;;;;;;5081663;28;20626;-74
2022/05/09 11:36:36;;;;;;;13.67;5.80;;;25.10;99.90;;;;;;5094636;28;20649;-73
2022/05/09 11:39:29;;;;;;;6.90;6.40;;;26.00;99.90;;;;;;5094774;28;20577;-73
2022/05/09 11:45:19;;;;;;;6.70;6.30;;;26.60;99.90;;;;;;5094714;28;20982;-75
2022/05/09 11:47:57;;;;;;;6.93;6.20;;;26.20;99.90;;;;;;5099553;28;21047;-74
2022/05/09 11:50:32;;;;;;;7.40;6.40;;;27.10;99.90;;;;;;5095300;28;20580;-74
2022/05/09 11:53:00;;;;;;;6.47;5.90;;;27.40;99.90;;;;;;5094275;28;20641;-74
2022/05/09 11:55:27;;;;;;;7.53;6.40;;;26.90;99.90;;;;;;5094179;28;20586;-74
2022/05/09 11:58:00;;;;;;;6.60;6.20;;;25.90;99.90;;;;;;5094385;28;20656;-74
2022/05/09 12:00:26;;;;;;;7.83;5.83;;;26.40;99.90;;;;;;5094219;28;20584;-75
2022/05/09 12:02:55;;;;;;;6.60;6.20;;;27.00;99.90;;;;;;5093632;28;20621;-73
2022/05/09 12:05:29;;;;;;;6.60;5.40;;;27.10;99.90;;;;;;5093507;28;20656;-73
2022/05/09 12:08:05;;;;;;;6.60;6.10;;;28.00;99.90;;;;;;5093926;28;20641;-75
2022/05/09 12:10:35;;;;;;;10.80;6.90;;;28.70;99.90;;;;;;5094122;28;20574;-74
2022/05/09 12:13:14;;;;;;;7.07;6.37;;;28.50;99.90;;;;;;5093631;28;20617;-74
2022/05/09 12:15:59;;;;;;;6.33;5.93;;;28.60;99.90;;;;;;5093917;28;20573;-75
2022/05/09 12:18:50;;;;;;;6.30;5.80;;;28.30;99.90;;;;;;5094042;28;20640;-74
2022/05/09 12:21:19;;;;;;;5.77;5.37;;;27.90;99.90;;;;;;5093488;28;20625;-74
2022/05/09 12:23:47;;;;;;;8.60;5.90;;;28.80;99.90;;;;;;5093845;28;20625;-72
2022/05/09 12:26:33;;;;;;;6.53;5.93;;;28.00;99.90;;;;;;5093416;28;20952;-73
2022/05/09 12:29:12;;;;;;;7.93;6.97;;;27.50;99.90;;;;;;5093861;28;20578;-73
2022/05/09 12:31:45;;;;;;;6.37;5.77;;;27.10;99.90;;;;;;5093427;28;20636;-73
2022/05/09 12:34:14;;;;;;;7.03;6.33;;;27.30;99.90;;;;;;5094010;28;20569;-74
2022/05/09 12:36:43;;;;;;;5.97;5.40;;;27.50;99.90;;;;;;5075801;28;20629;-74
2022/05/09 12:39:36;;;;;;;5.67;5.20;;;27.70;99.90;;;;;;5093146;28;20621;-74
2022/05/09 12:42:12;;;;;;;6.60;6.13;;;28.50;99.90;;;;;;5093763;28;20621;-73
2022/05/09 12:44:39;;;;;;;6.20;5.60;;;28.10;99.90;;;;;;5093997;28;20624;-73
2022/05/09 12:47:09;;;;;;;6.87;6.30;;;28.50;99.90;;;;;;5093859;28;20653;-76
2022/05/09 12:49:45;;;;;;;6.50;5.90;;;27.80;99.90;;;;;;5075584;28;20614;-76
2022/05/09 12:52:19;;;;;;;6.43;5.83;;;27.90;99.90;;;;;;5094111;28;20573;-75
2022/05/09 12:55:52;;;;;;;5.97;5.47;;;28.70;99.90;;;;;;5093463;28;20578;-75
2022/05/09 12:57:39;;;;;;;7.83;5.80;;;29.70;99.90;;;;;;5093702;28;21102;-73
2022/05/09 13:00:17;;;;;;;6.47;5.87;;;28.90;99.90;;;;;;5093520;28;21232;-73
2022/05/09 13:02:44;;;;;;;7.30;5.70;;;28.10;99.90;;;;;;5093504;28;20617;-72
2022/05/09 13:05:13;;;;;;;7.50;5.60;;;28.80;99.90;;;;;;5093478;28;21001;-73
2022/05/09 13:08:00;;;;;;;6.70;5.47;;;29.00;99.90;;;;;;5075072;28;20664;-74
2022/05/09 13:10:29;;;;;;;5.60;5.30;;;28.60;99.90;;;;;;5092775;28;21231;-74
2022/05/09 13:13:00;;;;;;;6.63;5.70;;;30.10;99.90;;;;;;5092907;28;20605;-75
2022/05/09 13:15:27;;;;;;;10.57;6.13;;;29.10;99.90;;;;;;5093317;28;20566;-76
2022/05/09 13:17:59;;;;;;;5.50;5.20;;;29.10;99.90;;;;;;5092967;28;21196;-73